Kuusiku, Estonia

8:21 AM EEST on April 28, 2015 (GMT +0300)
Mikkori-Metsa, Kohila, Raplamaa | | Change Station
CLOSE
Current Station
Personal Weather Station
Location: Kohila, RAPLA COUNTY
Elevation: 195 ft
Nearby Weather Stations

Elev 195 ft 59.18 °N, 24.70 °E | Updated 1 minute ago

Overcast
Overcast
46.3 °F
Feels Like 46 °F
N
3.0
Wind Variable Wind from NW
Gusts 8.5 mph

Today
High -- | Low -- °F
--% Chance of Precip.
Yesterday
High -- | Low -- °F
Precip. -- in
5:33 AM 9:05 PM
Waxing Gibbous, 71% visible
Pressure 29.65 in
Visibility 1.4 miles
Clouds Overcast 200 ft
Windchill 46 °F
Dew Point 45 °F
Humidity 95%
Rainfall 0.09 in
Snow Depth Not available.
UV 0 out of 12
Pollen Not available.
Air Quality Not available.
Flu Activity Not available.
METAR EETN 280520Z 30007KT 4800 2200W BR OVC002 07/07 Q1004 TEMPO 1500

More Conditions Fewer Conditions

Pressure 29.65 in
Visibility 1.4 miles
Clouds Overcast 200 ft
Windchill 46 °F
Dew Point 45 °F
Humidity 95%
Rainfall 0.09 in
Snow Depth Not available.
UV 0 out of 12
Pollen Not available.
Air Quality Not available.
Flu Activity Not available.
METAR EETN 280520Z 30007KT 4800 2200W BR OVC002 07/07 Q1004 TEMPO 1500

More Conditions Fewer Conditions

10-Day Weather Forecast

Almanac

Astronomy

Apr. 28, 2015 Rise Set
Actual Time
Civil Twilight
Nautical Twilight
Astronomical Twilight
Moon
Length of Visible Light
Length of Day
Tomorrow will be .
, % of the Moon is Illuminated

Today's Extremes

Country Highs Country Lows

Community

WunderPhotos

Upload Photos

1,817,584 photos uploaded!

WunderBlogs® & News

Nearby

Air Quality

  Air Quality AQ Index Pollutant
Not available.

Snow Depth

Station Depth Elevation

Earthquake Activity

City Distance Mag. Time & Date
Minimum magnitude displayed is 2.5.

Coastal Water Temperatures

Place Temperature

Stations

Nearby Weather Stations

Station Location Temp. Windchill Dew Point Humidity Wind Precip. Elev Updated Type